sensor_id;sensor_type;location;lat;lon;timestamp;P1;durP1;ratioP1;P2;durP2;ratioP2
53867;SDS011;41577;47.470;19.080;2023-02-27T00:00:05;6.20;;;4.28;;
53867;SDS011;41577;47.470;19.080;2023-02-27T00:00:23;5.75;;;4.10;;
53867;SDS011;41577;47.470;19.080;2023-02-27T00:00:37;5.20;;;3.88;;
53867;SDS011;41577;47.470;19.080;2023-02-27T00:00:50;5.20;;;4.25;;
53867;SDS011;41577;47.470;19.080;2023-02-27T00:01:12;4.72;;;4.28;;
53867;SDS011;41577;47.470;19.080;2023-02-27T00:01:25;4.43;;;4.03;;
53867;SDS011;41577;47.470;19.080;2023-02-27T00:01:40;6.07;;;4.25;;
53867;SDS011;41577;47.470;19.080;2023-02-27T00:01:53;7.03;;;4.72;;
53867;SDS011;41577;47.470;19.080;2023-02-27T00:02:05;7.20;;;4.53;;
53867;SDS011;41577;47.470;19.080;2023-02-27T00:02:18;6.30;;;4.35;;
53867;SDS011;41577;47.470;19.080;2023-02-27T00:02:32;5.90;;;4.50;;
53867;SDS011;41577;47.470;19.080;2023-02-27T00:02:48;5.95;;;4.43;;
53867;SDS011;41577;47.470;19.080;2023-02-27T00:03:02;5.50;;;4.10;;
53867;SDS011;41577;47.470;19.080;2023-02-27T00:03:16;5.50;;;4.03;;
53867;SDS011;41577;47.470;19.080;2023-02-27T00:03:28;7.95;;;4.22;;
53867;SDS011;41577;47.470;19.080;2023-02-27T00:03:40;7.88;;;4.25;;
53867;SDS011;41577;47.470;19.080;2023-02-27T00:03:53;7.28;;;4.28;;
53867;SDS011;41577;47.470;19.080;2023-02-27T00:04:05;5.57;;;4.47;;
53867;SDS011;41577;47.470;19.080;2023-02-27T00:04:19;5.10;;;4.38;;
53867;SDS011;41577;47.470;19.080;2023-02-27T00:04:31;5.07;;;4.22;;
53867;SDS011;41577;47.470;19.080;2023-02-27T00:04:44;5.50;;;4.60;;
53867;SDS011;41577;47.470;19.080;2023-02-27T00:04:57;5.68;;;4.65;;
53867;SDS011;41577;47.470;19.080;2023-02-27T00:05:10;7.30;;;4.72;;
53867;SDS011;41577;47.470;19.080;2023-02-27T00:05:24;6.38;;;4.30;;
53867;SDS011;41577;47.470;19.080;2023-02-27T00:05:37;4.40;;;3.90;;
53867;SDS011;41577;47.470;19.080;2023-02-27T00:05:52;5.25;;;4.05;;
53867;SDS011;41577;47.470;19.080;2023-02-27T00:06:07;4.97;;;3.92;;
53867;SDS011;41577;47.470;19.080;2023-02-27T00:06:19;4.30;;;3.90;;
53867;SDS011;41577;47.470;19.080;2023-02-27T00:06:32;4.22;;;3.83;;
53867;SDS011;41577;47.470;19.080;2023-02-27T00:06:44;4.30;;;3.90;;
53867;SDS011;41577;47.470;19.080;2023-02-27T00:06:57;4.30;;;3.90;;
53867;SDS011;41577;47.470;19.080;2023-02-27T00:07:10;4.40;;;4.00;;
53867;SDS011;41577;47.470;19.080;2023-02-27T00:07:22;4.63;;;4.22;;
53867;SDS011;41577;47.470;19.080;2023-02-27T00:07:35;4.78;;;4.28;;
53867;SDS011;41577;47.470;19.080;2023-02-27T00:07:48;4.65;;;4.03;;
53867;SDS011;41577;47.470;19.080;2023-02-27T00:08:01;4.82;;;4.18;;
53867;SDS011;41577;47.470;19.080;2023-02-27T00:08:17;6.53;;;4.43;;
53867;SDS011;41577;47.470;19.080;2023-02-27T00:08:31;6.50;;;4.30;;
53867;SDS011;41577;47.470;19.080;2023-02-27T00:08:44;5.07;;;4.10;;
53867;SDS011;41577;47.470;19.080;2023-02-27T00:09:03;6.95;;;4.28;;
53867;SDS011;41577;47.470;19.080;2023-02-27T00:09:16;6.55;;;4.10;;
53867;SDS011;41577;47.470;19.080;2023-02-27T00:09:31;4.78;;;3.90;;
53867;SDS011;41577;47.470;19.080;2023-02-27T00:09:44;5.47;;;4.18;;
53867;SDS011;41577;47.470;19.080;2023-02-27T00:09:58;5.35;;;4.28;;
53867;SDS011;41577;47.470;19.080;2023-02-27T00:10:11;5.03;;;4.15;;
53867;SDS011;41577;47.470;19.080;2023-02-27T00:10:24;5.05;;;4.20;;
53867;SDS011;41577;47.470;19.080;2023-02-27T00:10:37;4.53;;;3.95;;
53867;SDS011;41577;47.470;19.080;2023-02-27T00:10:52;4.72;;;3.88;;
53867;SDS011;41577;47.470;19.080;2023-02-27T00:11:04;5.50;;;4.18;;
53867;SDS011;41577;47.470;19.080;2023-02-27T00:11:18;5.38;;;4.15;;
53867;SDS011;41577;47.470;19.080;2023-02-27T00:11:30;5.75;;;3.80;;
53867;SDS011;41577;47.470;19.080;2023-02-27T00:11:44;4.93;;;3.72;;
53867;SDS011;41577;47.470;19.080;2023-02-27T00:12:00;4.15;;;3.75;;
53867;SDS011;41577;47.470;19.080;2023-02-27T00:12:13;4.20;;;3.80;;
53867;SDS011;41577;47.470;19.080;2023-02-27T00:12:25;3.88;;;3.58;;
53867;SDS011;41577;47.470;19.080;2023-02-27T00:12:38;4.25;;;3.72;;
53867;SDS011;41577;47.470;19.080;2023-02-27T00:12:51;4.82;;;3.83;;
53867;SDS011;41577;47.470;19.080;2023-02-27T00:13:03;5.18;;;4.25;;
53867;SDS011;41577;47.470;19.080;2023-02-27T00:13:16;4.85;;;4.30;;
53867;SDS011;41577;47.470;19.080;2023-02-27T00:13:28;4.88;;;4.05;;
53867;SDS011;41577;47.470;19.080;2023-02-27T00:13:41;5.38;;;4.05;;
53867;SDS011;41577;47.470;19.080;2023-02-27T00:13:53;4.82;;;3.92;;
53867;SDS011;41577;47.470;19.080;2023-02-27T00:14:06;4.50;;;3.80;;
53867;SDS011;41577;47.470;19.080;2023-02-27T00:14:20;4.53;;;3.95;;
53867;SDS011;41577;47.470;19.080;2023-02-27T00:14:33;6.60;;;4.20;;
53867;SDS011;41577;47.470;19.080;2023-02-27T00:14:45;6.50;;;4.38;;
53867;SDS011;41577;47.470;19.080;2023-02-27T00:14:57;5.90;;;4.22;;
53867;SDS011;41577;47.470;19.080;2023-02-27T00:15:10;4.68;;;3.70;;
53867;SDS011;41577;47.470;19.080;2023-02-27T00:15:24;5.13;;;3.78;;
53867;SDS011;41577;47.470;19.080;2023-02-27T00:15:38;5.25;;;4.13;;
53867;SDS011;41577;47.470;19.080;2023-02-27T00:15:51;6.22;;;4.10;;
53867;SDS011;41577;47.470;19.080;2023-02-27T00:16:03;6.35;;;4.15;;
53867;SDS011;41577;47.470;19.080;2023-02-27T00:16:16;6.72;;;4.35;;
53867;SDS011;41577;47.470;19.080;2023-02-27T00:16:30;8.10;;;5.63;;
53867;SDS011;41577;47.470;19.080;2023-02-27T00:16:42;8.23;;;5.95;;
53867;SDS011;41577;47.470;19.080;2023-02-27T00:16:55;5.60;;;5.05;;
53867;SDS011;41577;47.470;19.080;2023-02-27T00:17:07;4.97;;;4.30;;
53867;SDS011;41577;47.470;19.080;2023-02-27T00:17:19;5.55;;;4.25;;
53867;SDS011;41577;47.470;19.080;2023-02-27T00:17:32;6.30;;;4.72;;
53867;SDS011;41577;47.470;19.080;2023-02-27T00:17:47;5.38;;;4.43;;
53867;SDS011;41577;47.470;19.080;2023-02-27T00:17:59;4.65;;;3.92;;
53867;SDS011;41577;47.470;19.080;2023-02-27T00:18:12;5.60;;;4.07;;
53867;SDS011;41577;47.470;19.080;2023-02-27T00:18:26;5.47;;;4.30;;
53867;SDS011;41577;47.470;19.080;2023-02-27T00:18:38;5.78;;;4.40;;
53867;SDS011;41577;47.470;19.080;2023-02-27T00:18:51;5.30;;;4.05;;
53867;SDS011;41577;47.470;19.080;2023-02-27T00:19:04;5.75;;;4.03;;
53867;SDS011;41577;47.470;19.080;2023-02-27T00:19:16;5.93;;;4.20;;
53867;SDS011;41577;47.470;19.080;2023-02-27T00:19:32;6.63;;;4.50;;
53867;SDS011;41577;47.470;19.080;2023-02-27T00:19:46;6.25;;;4.30;;
53867;SDS011;41577;47.470;19.080;2023-02-27T00:19:59;5.50;;;4.10;;
53867;SDS011;41577;47.470;19.080;2023-02-27T00:20:12;6.03;;;3.90;;
53867;SDS011;41577;47.470;19.080;2023-02-27T00:20:29;6.20;;;3.90;;
53867;SDS011;41577;47.470;19.080;2023-02-27T00:20:41;4.88;;;4.07;;
53867;SDS011;41577;47.470;19.080;2023-02-27T00:20:54;5.00;;;4.40;;
53867;SDS011;41577;47.470;19.080;2023-02-27T00:21:08;4.65;;;4.10;;
53867;SDS011;41577;47.470;19.080;2023-02-27T00:21:20;6.70;;;4.18;;
53867;SDS011;41577;47.470;19.080;2023-02-27T00:21:33;6.72;;;4.30;;
53867;SDS011;41577;47.470;19.080;2023-02-27T00:21:47;5.00;;;4.45;;
53867;SDS011;41577;47.470;19.080;2023-02-27T00:22:00;4.65;;;4.18;;
53867;SDS011;41577;47.470;19.080;2023-02-27T00:22:13;4.40;;;4.00;;
53867;SDS011;41577;47.470;19.080;2023-02-27T00:22:25;4.47;;;4.07;;
53867;SDS011;41577;47.470;19.080;2023-02-27T00:22:38;4.60;;;4.20;;
53867;SDS011;41577;47.470;19.080;2023-02-27T00:22:51;4.85;;;4.20;;
53867;SDS011;41577;47.470;19.080;2023-02-27T00:23:03;5.43;;;4.50;;
53867;SDS011;41577;47.470;19.080;2023-02-27T00:23:16;5.13;;;4.47;;
53867;SDS011;41577;47.470;19.080;2023-02-27T00:23:28;4.60;;;4.20;;
53867;SDS011;41577;47.470;19.080;2023-02-27T00:23:40;4.70;;;4.22;;
53867;SDS011;41577;47.470;19.080;2023-02-27T00:23:54;5.28;;;4.03;;
53867;SDS011;41577;47.470;19.080;2023-02-27T00:24:07;5.30;;;4.03;;
53867;SDS011;41577;47.470;19.080;2023-02-27T00:24:21;6.07;;;4.22;;
53867;SDS011;41577;47.470;19.080;2023-02-27T00:24:34;6.05;;;4.13;;
53867;SDS011;41577;47.470;19.080;2023-02-27T00:24:47;4.55;;;3.83;;
53867;SDS011;41577;47.470;19.080;2023-02-27T00:24:59;5.57;;;4.07;;
53867;SDS011;41577;47.470;19.080;2023-02-27T00:25:12;6.15;;;4.28;;
53867;SDS011;41577;47.470;19.080;2023-02-27T00:25:25;6.13;;;4.53;;
53867;SDS011;41577;47.470;19.080;2023-02-27T00:25:38;5.00;;;4.50;;
53867;SDS011;41577;47.470;19.080;2023-02-27T00:25:50;4.78;;;4.28;;
53867;SDS011;41577;47.470;19.080;2023-02-27T00:26:03;5.82;;;4.28;;
53867;SDS011;41577;47.470;19.080;2023-02-27T00:26:16;6.18;;;4.36;;
53867;SDS011;41577;47.470;19.080;2023-02-27T00:26:29;7.22;;;4.20;;
53867;SDS011;41577;47.470;19.080;2023-02-27T00:26:42;6.30;;;4.05;;
53867;SDS011;41577;47.470;19.080;2023-02-27T00:26:54;5.20;;;4.07;;
53867;SDS011;41577;47.470;19.080;2023-02-27T00:27:06;4.78;;;3.97;;
53867;SDS011;41577;47.470;19.080;2023-02-27T00:27:22;6.47;;;3.75;;
53867;SDS011;41577;47.470;19.080;2023-02-27T00:27:35;9.25;;;3.88;;
53867;SDS011;41577;47.470;19.080;2023-02-27T00:27:47;8.35;;;4.10;;
53867;SDS011;41577;47.470;19.080;2023-02-27T00:28:00;5.00;;;3.75;;
53867;SDS011;41577;47.470;19.080;2023-02-27T00:28:15;4.05;;;3.65;;
53867;SDS011;41577;47.470;19.080;2023-02-27T00:28:29;4.45;;;4.03;;
53867;SDS011;41577;47.470;19.080;2023-02-27T00:28:45;4.60;;;3.90;;
53867;SDS011;41577;47.470;19.080;2023-02-27T00:28:59;4.70;;;3.80;;
53867;SDS011;41577;47.470;19.080;2023-02-27T00:29:13;4.60;;;4.10;;
53867;SDS011;41577;47.470;19.080;2023-02-27T00:29:29;4.28;;;3.88;;
53867;SDS011;41577;47.470;19.080;2023-02-27T00:29:42;4.60;;;3.80;;
53867;SDS011;41577;47.470;19.080;2023-02-27T00:29:55;5.78;;;4.05;;
53867;SDS011;41577;47.470;19.080;2023-02-27T00:30:10;5.78;;;4.43;;
53867;SDS011;41577;47.470;19.080;2023-02-27T00:30:27;5.18;;;4.50;;
53867;SDS011;41577;47.470;19.080;2023-02-27T00:30:43;6.65;;;4.70;;
53867;SDS011;41577;47.470;19.080;2023-02-27T00:30:57;6.43;;;4.50;;
53867;SDS011;41577;47.470;19.080;2023-02-27T00:31:10;5.20;;;4.35;;
53867;SDS011;41577;47.470;19.080;2023-02-27T00:31:23;4.93;;;4.32;;
53867;SDS011;41577;47.470;19.080;2023-02-27T00:31:37;4.86;;;4.36;;
53867;SDS011;41577;47.470;19.080;2023-02-27T00:31:49;5.40;;;4.40;;
53867;SDS011;41577;47.470;19.080;2023-02-27T00:32:02;6.82;;;4.60;;
53867;SDS011;41577;47.470;19.080;2023-02-27T00:32:16;7.20;;;4.80;;
53867;SDS011;41577;47.470;19.080;2023-02-27T00:32:30;6.50;;;4.68;;
53867;SDS011;41577;47.470;19.080;2023-02-27T00:32:43;6.35;;;4.50;;
53867;SDS011;41577;47.470;19.080;2023-02-27T00:32:56;7.88;;;4.38;;
53867;SDS011;41577;47.470;19.080;2023-02-27T00:33:08;8.13;;;4.22;;
53867;SDS011;41577;47.470;19.080;2023-02-27T00:33:21;7.53;;;4.30;;
53867;SDS011;41577;47.470;19.080;2023-02-27T00:33:33;5.18;;;3.95;;
53867;SDS011;41577;47.470;19.080;2023-02-27T00:33:46;4.47;;;4.00;;
53867;SDS011;41577;47.470;19.080;2023-02-27T00:33:58;4.60;;;4.20;;
53867;SDS011;41577;47.470;19.080;2023-02-27T00:34:11;4.55;;;4.15;;
53867;SDS011;41577;47.470;19.080;2023-02-27T00:34:24;4.15;;;3.78;;
53867;SDS011;41577;47.470;19.080;2023-02-27T00:34:37;4.38;;;3.97;;
53867;SDS011;41577;47.470;19.080;2023-02-27T00:34:49;4.75;;;4.20;;
53867;SDS011;41577;47.470;19.080;2023-02-27T00:35:02;4.93;;;4.25;;
53867;SDS011;41577;47.470;19.080;2023-02-27T00:35:14;4.82;;;4.03;;
53867;SDS011;41577;47.470;19.080;2023-02-27T00:35:27;5.18;;;4.18;;
53867;SDS011;41577;47.470;19.080;2023-02-27T00:35:40;4.75;;;4.20;;
53867;SDS011;41577;47.470;19.080;2023-02-27T00:35:55;4.70;;;4.20;;
53867;SDS011;41577;47.470;19.080;2023-02-27T00:36:08;5.18;;;4.22;;
53867;SDS011;41577;47.470;19.080;2023-02-27T00:36:20;4.95;;;4.13;;
53867;SDS011;41577;47.470;19.080;2023-02-27T00:36:33;5.03;;;4.13;;
53867;SDS011;41577;47.470;19.080;2023-02-27T00:36:46;5.18;;;4.20;;
53867;SDS011;41577;47.470;19.080;2023-02-27T00:36:58;4.85;;;4.10;;
53867;SDS011;41577;47.470;19.080;2023-02-27T00:37:10;4.57;;;4.15;;
53867;SDS011;41577;47.470;19.080;2023-02-27T00:37:24;4.32;;;3.92;;
53867;SDS011;41577;47.470;19.080;2023-02-27T00:37:37;4.68;;;4.15;;
53867;SDS011;41577;47.470;19.080;2023-02-27T00:37:50;4.97;;;4.20;;
53867;SDS011;41577;47.470;19.080;2023-02-27T00:38:02;5.25;;;4.28;;
53867;SDS011;41577;47.470;19.080;2023-02-27T00:38:15;5.15;;;4.40;;
53867;SDS011;41577;47.470;19.080;2023-02-27T00:38:28;6.07;;;4.68;;
53867;SDS011;41577;47.470;19.080;2023-02-27T00:38:41;6.10;;;4.47;;
53867;SDS011;41577;47.470;19.080;2023-02-27T00:38:53;5.38;;;4.28;;
53867;SDS011;41577;47.470;19.080;2023-02-27T00:39:06;5.38;;;4.30;;
53867;SDS011;41577;47.470;19.080;2023-02-27T00:39:18;4.95;;;4.32;;
53867;SDS011;41577;47.470;19.080;2023-02-27T00:39:31;5.15;;;4.30;;
53867;SDS011;41577;47.470;19.080;2023-02-27T00:39:44;4.50;;;3.92;;
53867;SDS011;41577;47.470;19.080;2023-02-27T00:39:56;5.80;;;4.18;;
53867;SDS011;41577;47.470;19.080;2023-02-27T00:40:09;5.75;;;4.20;;
53867;SDS011;41577;47.470;19.080;2023-02-27T00:40:23;5.07;;;4.20;;
53867;SDS011;41577;47.470;19.080;2023-02-27T00:40:36;4.85;;;4.10;;
53867;SDS011;41577;47.470;19.080;2023-02-27T00:40:49;5.00;;;4.00;;
53867;SDS011;41577;47.470;19.080;2023-02-27T00:41:01;4.45;;;4.05;;
53867;SDS011;41577;47.470;19.080;2023-02-27T00:41:13;4.70;;;4.30;;
53867;SDS011;41577;47.470;19.080;2023-02-27T00:41:26;5.72;;;4.50;;
53867;SDS011;41577;47.470;19.080;2023-02-27T00:41:39;6.82;;;4.60;;
53867;SDS011;41577;47.470;19.080;2023-02-27T00:41:51;6.10;;;4.35;;
53867;SDS011;41577;47.470;19.080;2023-02-27T00:42:04;4.63;;;4.10;;
53867;SDS011;41577;47.470;19.080;2023-02-27T00:42:16;4.78;;;4.18;;
53867;SDS011;41577;47.470;19.080;2023-02-27T00:42:30;5.28;;;4.63;;
53867;SDS011;41577;47.470;19.080;2023-02-27T00:42:42;5.00;;;4.50;;
53867;SDS011;41577;47.470;19.080;2023-02-27T00:42:55;5.68;;;4.57;;
53867;SDS011;41577;47.470;19.080;2023-02-27T00:43:07;6.95;;;4.50;;
53867;SDS011;41577;47.470;19.080;2023-02-27T00:43:20;7.03;;;4.35;;
53867;SDS011;41577;47.470;19.080;2023-02-27T00:43:34;6.15;;;4.28;;
53867;SDS011;41577;47.470;19.080;2023-02-27T00:43:47;6.03;;;4.57;;
53867;SDS011;41577;47.470;19.080;2023-02-27T00:44:01;10.13;;;4.60;;
53867;SDS011;41577;47.470;19.080;2023-02-27T00:44:13;9.82;;;4.55;;
53867;SDS011;41577;47.470;19.080;2023-02-27T00:44:26;6.03;;;4.75;;
53867;SDS011;41577;47.470;19.080;2023-02-27T00:44:38;6.10;;;4.63;;
53867;SDS011;41577;47.470;19.080;2023-02-27T00:44:50;5.45;;;4.50;;
53867;SDS011;41577;47.470;19.080;2023-02-27T00:45:02;5.22;;;4.43;;
53867;SDS011;41577;47.470;19.080;2023-02-27T00:45:16;5.40;;;4.40;;
53867;SDS011;41577;47.470;19.080;2023-02-27T00:45:31;5.25;;;4.18;;
53867;SDS011;41577;47.470;19.080;2023-02-27T00:45:45;5.78;;;4.32;;
53867;SDS011;41577;47.470;19.080;2023-02-27T00:45:59;6.22;;;4.55;;
53867;SDS011;41577;47.470;19.080;2023-02-27T00:46:12;6.22;;;4.50;;
53867;SDS011;41577;47.470;19.080;2023-02-27T00:46:25;5.90;;;4.60;;
53867;SDS011;41577;47.470;19.080;2023-02-27T00:46:37;5.90;;;4.75;;
53867;SDS011;41577;47.470;19.080;2023-02-27T00:46:50;6.15;;;4.95;;
53867;SDS011;41577;47.470;19.080;2023-02-27T00:47:04;5.07;;;4.45;;
53867;SDS011;41577;47.470;19.080;2023-02-27T00:47:18;6.25;;;4.10;;
53867;SDS011;41577;47.470;19.080;2023-02-27T00:47:30;6.65;;;4.25;;
53867;SDS011;41577;47.470;19.080;2023-02-27T00:47:47;5.22;;;4.35;;
53867;SDS011;41577;47.470;19.080;2023-02-27T00:48:03;7.07;;;4.75;;
53867;SDS011;41577;47.470;19.080;2023-02-27T00:48:16;7.43;;;4.97;;
53867;SDS011;41577;47.470;19.080;2023-02-27T00:48:28;5.63;;;4.65;;
53867;SDS011;41577;47.470;19.080;2023-02-27T00:48:41;5.18;;;4.32;;
53867;SDS011;41577;47.470;19.080;2023-02-27T00:48:55;4.97;;;4.20;;
53867;SDS011;41577;47.470;19.080;2023-02-27T00:49:14;4.93;;;4.43;;
53867;SDS011;41577;47.470;19.080;2023-02-27T00:49:29;6.03;;;4.50;;
53867;SDS011;41577;47.470;19.080;2023-02-27T00:49:42;6.53;;;4.55;;
53867;SDS011;41577;47.470;19.080;2023-02-27T00:49:55;6.35;;;4.88;;
53867;SDS011;41577;47.470;19.080;2023-02-27T00:50:08;5.60;;;4.82;;
53867;SDS011;41577;47.470;19.080;2023-02-27T00:50:22;5.22;;;4.65;;
53867;SDS011;41577;47.470;19.080;2023-02-27T00:50:35;5.50;;;4.60;;
53867;SDS011;41577;47.470;19.080;2023-02-27T00:50:48;5.05;;;4.47;;
53867;SDS011;41577;47.470;19.080;2023-02-27T00:51:01;5.90;;;4.43;;
53867;SDS011;41577;47.470;19.080;2023-02-27T00:51:14;6.78;;;4.53;;
53867;SDS011;41577;47.470;19.080;2023-02-27T00:51:26;6.72;;;4.58;;
53867;SDS011;41577;47.470;19.080;2023-02-27T00:51:40;5.63;;;4.40;;
53867;SDS011;41577;47.470;19.080;2023-02-27T00:51:52;5.72;;;4.40;;
53867;SDS011;41577;47.470;19.080;2023-02-27T00:52:07;6.45;;;4.72;;
53867;SDS011;41577;47.470;19.080;2023-02-27T00:52:23;6.38;;;4.80;;
53867;SDS011;41577;47.470;19.080;2023-02-27T00:52:35;6.28;;;4.75;;
53867;SDS011;41577;47.470;19.080;2023-02-27T00:52:48;6.45;;;4.80;;
53867;SDS011;41577;47.470;19.080;2023-02-27T00:53:00;6.18;;;4.75;;
53867;SDS011;41577;47.470;19.080;2023-02-27T00:53:13;5.65;;;4.53;;
53867;SDS011;41577;47.470;19.080;2023-02-27T00:53:27;5.30;;;4.60;;
53867;SDS011;41577;47.470;19.080;2023-02-27T00:53:40;6.15;;;5.13;;
53867;SDS011;41577;47.470;19.080;2023-02-27T00:53:52;6.07;;;5.20;;
53867;SDS011;41577;47.470;19.080;2023-02-27T00:54:05;6.30;;;5.20;;
53867;SDS011;41577;47.470;19.080;2023-02-27T00:54:17;6.20;;;5.20;;
53867;SDS011;41577;47.470;19.080;2023-02-27T00:54:31;6.00;;;4.80;;
53867;SDS011;41577;47.470;19.080;2023-02-27T00:54:43;5.60;;;4.50;;
53867;SDS011;41577;47.470;19.080;2023-02-27T00:54:56;5.45;;;4.47;;
53867;SDS011;41577;47.470;19.080;2023-02-27T00:55:09;6.28;;;4.68;;
53867;SDS011;41577;47.470;19.080;2023-02-27T00:55:22;8.48;;;4.78;;
53867;SDS011;41577;47.470;19.080;2023-02-27T00:55:38;9.40;;;5.10;;
53867;SDS011;41577;47.470;19.080;2023-02-27T00:55:51;7.78;;;5.13;;
53867;SDS011;41577;47.470;19.080;2023-02-27T00:56:03;6.45;;;4.47;;
53867;SDS011;41577;47.470;19.080;2023-02-27T00:56:16;5.93;;;4.50;;
53867;SDS011;41577;47.470;19.080;2023-02-27T00:56:28;5.88;;;4.70;;
53867;SDS011;41577;47.470;19.080;2023-02-27T00:56:42;5.93;;;4.70;;
53867;SDS011;41577;47.470;19.080;2023-02-27T00:56:55;5.35;;;4.35;;
53867;SDS011;41577;47.470;19.080;2023-02-27T00:57:11;6.57;;;4.63;;
53867;SDS011;41577;47.470;19.080;2023-02-27T00:57:24;6.70;;;4.90;;
53867;SDS011;41577;47.470;19.080;2023-02-27T00:57:36;5.65;;;4.93;;
53867;SDS011;41577;47.470;19.080;2023-02-27T00:57:51;5.65;;;4.90;;
53867;SDS011;41577;47.470;19.080;2023-02-27T00:58:05;6.00;;;5.00;;
53867;SDS011;41577;47.470;19.080;2023-02-27T00:58:19;6.55;;;4.78;;
53867;SDS011;41577;47.470;19.080;2023-02-27T00:58:32;7.10;;;4.53;;
53867;SDS011;41577;47.470;19.080;2023-02-27T00:58:53;6.70;;;5.18;;
53867;SDS011;41577;47.470;19.080;2023-02-27T00:59:05;5.93;;;5.25;;
53867;SDS011;41577;47.470;19.080;2023-02-27T00:59:18;5.93;;;5.18;;
53867;SDS011;41577;47.470;19.080;2023-02-27T00:59:31;5.68;;;5.10;;
53867;SDS011;41577;47.470;19.080;2023-02-27T00:59:43;5.75;;;4.97;;
53867;SDS011;41577;47.470;19.080;2023-02-27T00:59:57;5.68;;;5.03;;
53867;SDS011;41577;47.470;19.080;2023-02-27T01:00:11;6.40;;;4.95;;
53867;SDS011;41577;47.470;19.080;2023-02-27T01:00:25;6.32;;;4.80;;
53867;SDS011;41577;47.470;19.080;2023-02-27T01:00:37;6.35;;;4.95;;
53867;SDS011;41577;47.470;19.080;2023-02-27T01:00:51;7.60;;;4.93;;
53867;SDS011;41577;47.470;19.080;2023-02-27T01:01:04;8.00;;;5.07;;
53867;SDS011;41577;47.470;19.080;2023-02-27T01:01:20;7.50;;;5.28;;
53867;SDS011;41577;47.470;19.080;2023-02-27T01:01:32;7.55;;;5.32;;
53867;SDS011;41577;47.470;19.080;2023-02-27T01:01:47;7.22;;;5.43;;
53867;SDS011;41577;47.470;19.080;2023-02-27T01:02:00;6.54;;;5.08;;
53867;SDS011;41577;47.470;19.080;2023-02-27T01:02:13;6.53;;;4.82;;
53867;SDS011;41577;47.470;19.080;2023-02-27T01:02:26;8.02;;;4.97;;
53867;SDS011;41577;47.470;19.080;2023-02-27T01:02:40;7.47;;;4.93;;
53867;SDS011;41577;47.470;19.080;2023-02-27T01:02:52;6.97;;;5.10;;
53867;SDS011;41577;47.470;19.080;2023-02-27T01:03:04;6.57;;;5.10;;
53867;SDS011;41577;47.470;19.080;2023-02-27T01:03:19;5.65;;;4.88;;
53867;SDS011;41577;47.470;19.080;2023-02-27T01:03:32;5.25;;;4.68;;
53867;SDS011;41577;47.470;19.080;2023-02-27T01:03:53;5.05;;;4.55;;
53867;SDS011;41577;47.470;19.080;2023-02-27T01:04:06;5.68;;;4.57;;
53867;SDS011;41577;47.470;19.080;2023-02-27T01:04:20;7.18;;;4.65;;
53867;SDS011;41577;47.470;19.080;2023-02-27T01:04:34;6.72;;;4.65;;
53867;SDS011;41577;47.470;19.080;2023-02-27T01:04:47;6.47;;;4.82;;
53867;SDS011;41577;47.470;19.080;2023-02-27T01:05:00;6.40;;;4.63;;
53867;SDS011;41577;47.470;19.080;2023-02-27T01:05:14;7.00;;;4.70;;
53867;SDS011;41577;47.470;19.080;2023-02-27T01:05:26;5.68;;;4.68;;
53867;SDS011;41577;47.470;19.080;2023-02-27T01:05:43;5.82;;;4.80;;
53867;SDS011;41577;47.470;19.080;2023-02-27T01:05:56;6.10;;;4.82;;
53867;SDS011;41577;47.470;19.080;2023-02-27T01:06:09;5.60;;;4.70;;
53867;SDS011;41577;47.470;19.080;2023-02-27T01:06:23;5.22;;;4.63;;
53867;SDS011;41577;47.470;19.080;2023-02-27T01:06:38;6.30;;;4.75;;
53867;SDS011;41577;47.470;19.080;2023-02-27T01:06:51;7.32;;;4.97;;
53867;SDS011;41577;47.470;19.080;2023-02-27T01:07:05;7.80;;;5.05;;
53867;SDS011;41577;47.470;19.080;2023-02-27T01:07:19;5.80;;;4.63;;
53867;SDS011;41577;47.470;19.080;2023-02-27T01:07:31;5.07;;;4.30;;
53867;SDS011;41577;47.470;19.080;2023-02-27T01:07:47;5.40;;;4.38;;
53867;SDS011;41577;47.470;19.080;2023-02-27T01:08:00;4.85;;;4.28;;
53867;SDS011;41577;47.470;19.080;2023-02-27T01:08:12;4.45;;;4.05;;
53867;SDS011;41577;47.470;19.080;2023-02-27T01:08:26;4.78;;;4.20;;
53867;SDS011;41577;47.470;19.080;2023-02-27T01:08:38;5.35;;;4.22;;
53867;SDS011;41577;47.470;19.080;2023-02-27T01:08:53;5.32;;;4.30;;
53867;SDS011;41577;47.470;19.080;2023-02-27T01:09:08;5.63;;;4.35;;
53867;SDS011;41577;47.470;19.080;2023-02-27T01:09:21;5.07;;;4.20;;
53867;SDS011;41577;47.470;19.080;2023-02-27T01:09:39;4.88;;;4.18;;
53867;SDS011;41577;47.470;19.080;2023-02-27T01:09:51;5.35;;;4.30;;
53867;SDS011;41577;47.470;19.080;2023-02-27T01:10:04;4.95;;;4.40;;
53867;SDS011;41577;47.470;19.080;2023-02-27T01:10:22;4.95;;;4.45;;
53867;SDS011;41577;47.470;19.080;2023-02-27T01:10:35;5.75;;;4.88;;
53867;SDS011;41577;47.470;19.080;2023-02-27T01:10:53;6.65;;;4.97;;
53867;SDS011;41577;47.470;19.080;2023-02-27T01:11:05;6.20;;;4.45;;
53867;SDS011;41577;47.470;19.080;2023-02-27T01:11:18;6.38;;;4.32;;
53867;SDS011;41577;47.470;19.080;2023-02-27T01:11:32;6.45;;;4.57;;
53867;SDS011;41577;47.470;19.080;2023-02-27T01:11:47;6.35;;;5.00;;
53867;SDS011;41577;47.470;19.080;2023-02-27T01:12:00;5.57;;;4.72;;
53867;SDS011;41577;47.470;19.080;2023-02-27T01:12:13;5.13;;;4.63;;
53867;SDS011;41577;47.470;19.080;2023-02-27T01:12:29;4.90;;;4.35;;
53867;SDS011;41577;47.470;19.080;2023-02-27T01:12:43;5.72;;;4.22;;
53867;SDS011;41577;47.470;19.080;2023-02-27T01:12:56;7.72;;;4.50;;
53867;SDS011;41577;47.470;19.080;2023-02-27T01:13:11;6.65;;;4.43;;
53867;SDS011;41577;47.470;19.080;2023-02-27T01:13:23;5.18;;;4.53;;
53867;SDS011;41577;47.470;19.080;2023-02-27T01:13:36;5.10;;;4.40;;
53867;SDS011;41577;47.470;19.080;2023-02-27T01:13:51;5.35;;;4.18;;
53867;SDS011;41577;47.470;19.080;2023-02-27T01:14:07;5.05;;;4.20;;
53867;SDS011;41577;47.470;19.080;2023-02-27T01:14:19;4.93;;;4.00;;
53867;SDS011;41577;47.470;19.080;2023-02-27T01:14:32;5.13;;;4.05;;
53867;SDS011;41577;47.470;19.080;2023-02-27T01:14:46;5.00;;;4.15;;
53867;SDS011;41577;47.470;19.080;2023-02-27T01:15:01;5.43;;;4.53;;
53867;SDS011;41577;47.470;19.080;2023-02-27T01:15:13;6.20;;;4.70;;
53867;SDS011;41577;47.470;19.080;2023-02-27T01:15:27;6.28;;;4.38;;
53867;SDS011;41577;47.470;19.080;2023-02-27T01:15:40;6.13;;;4.40;;
53867;SDS011;41577;47.470;19.080;2023-02-27T01:15:58;5.70;;;4.43;;
53867;SDS011;41577;47.470;19.080;2023-02-27T01:16:16;5.18;;;4.28;;
53867;SDS011;41577;47.470;19.080;2023-02-27T01:16:30;4.95;;;4.35;;
53867;SDS011;41577;47.470;19.080;2023-02-27T01:16:42;4.75;;;4.25;;
53867;SDS011;41577;47.470;19.080;2023-02-27T01:16:55;5.32;;;4.43;;
53867;SDS011;41577;47.470;19.080;2023-02-27T01:17:08;5.60;;;4.40;;
53867;SDS011;41577;47.470;19.080;2023-02-27T01:17:21;8.02;;;4.40;;
53867;SDS011;41577;47.470;19.080;2023-02-27T01:17:34;7.93;;;4.30;;
53867;SDS011;41577;47.470;19.080;2023-02-27T01:17:49;7.03;;;4.40;;
53867;SDS011;41577;47.470;19.080;2023-02-27T01:18:19;4.47;;;3.97;;
53867;SDS011;41577;47.470;19.080;2023-02-27T01:18:35;6.82;;;4.50;;
53867;SDS011;41577;47.470;19.080;2023-02-27T01:18:48;7.22;;;4.68;;
53867;SDS011;41577;47.470;19.080;2023-02-27T01:19:01;7.07;;;5.03;;
53867;SDS011;41577;47.470;19.080;2023-02-27T01:19:13;7.00;;;5.22;;
53867;SDS011;41577;47.470;19.080;2023-02-27T01:19:27;6.88;;;5.10;;
53867;SDS011;41577;47.470;19.080;2023-02-27T01:19:40;6.82;;;4.80;;
53867;SDS011;41577;47.470;19.080;2023-02-27T01:19:53;6.60;;;4.68;;